Time;durP1;ratioP1;P1;durP2;ratioP2;P2;SDS_P1;SDS_P2;PMS_P1;PMS_P2;Temp;Humidity;BMP_temperature;BMP_pressure;BME280_temperature;BME280_humidity;BME280_pressure;Samples;Min_cycle;Max_cycle;Signal;HPM_P1;HPM_P2
2023/04/22 00:00:49;;;;;;;13.40;11.45;;;10.10;99.90;;;;;;5033432;28;20090;-48
2023/04/22 00:03:15;;;;;;;17.10;12.48;;;10.10;99.90;;;;;;5032811;28;20123;-45
2023/04/22 00:05:43;;;;;;;18.48;13.80;;;10.00;99.90;;;;;;5030329;28;20042;-40
2023/04/22 00:08:09;;;;;;;14.35;11.50;;;9.90;99.90;;;;;;5031906;28;20904;-40
2023/04/22 00:10:35;;;;;;;14.20;12.05;;;9.90;99.90;;;;;;5032883;28;20052;-49
2023/04/22 00:13:00;;;;;;;16.10;12.02;;;9.80;99.90;;;;;;5029301;28;20041;-51
2023/04/22 00:15:27;;;;;;;15.63;11.90;;;9.80;99.90;;;;;;5031088;28;20057;-46
2023/04/22 00:17:53;;;;;;;19.65;15.75;;;9.70;99.90;;;;;;5033417;28;20087;-46
2023/04/22 00:20:20;;;;;;;15.07;11.70;;;9.70;99.90;;;;;;5032126;28;20131;-43
2023/04/22 00:22:46;;;;;;;14.38;11.15;;;9.60;99.90;;;;;;5033364;28;20133;-43
2023/04/22 00:25:12;;;;;;;12.48;10.93;;;9.50;99.90;;;;;;5032260;28;20084;-44
2023/04/22 00:27:38;;;;;;;13.10;11.65;;;9.50;99.90;;;;;;5033468;28;20128;-39
2023/04/22 00:30:05;;;;;;;13.50;11.00;;;9.40;99.90;;;;;;5031489;28;20593;-37
2023/04/22 00:32:30;;;;;;;12.52;10.57;;;9.40;99.90;;;;;;5029635;28;20045;-40
2023/04/22 00:34:56;;;;;;;11.70;10.35;;;9.30;99.90;;;;;;5031854;28;20569;-47
2023/04/22 00:37:24;;;;;;;11.15;9.48;;;9.20;99.90;;;;;;5033203;28;20049;-41
2023/04/22 00:39:50;;;;;;;15.70;10.45;;;9.10;99.90;;;;;;5031157;28;20052;-48
2023/04/22 00:42:16;;;;;;;12.85;10.68;;;9.00;99.90;;;;;;5032970;28;20103;-46
2023/04/22 00:44:42;;;;;;;11.63;10.43;;;9.00;99.90;;;;;;5030317;28;20045;-42
2023/04/22 00:47:11;;;;;;;11.35;10.15;;;9.00;99.90;;;;;;5033171;28;20053;-41
2023/04/22 00:49:40;;;;;;;12.50;10.98;;;8.90;99.90;;;;;;5032107;28;20044;-51
2023/04/22 00:52:06;;;;;;;12.75;11.45;;;8.90;99.90;;;;;;5033229;28;20488;-46
2023/04/22 00:54:34;;;;;;;15.35;11.82;;;8.90;99.90;;;;;;5044907;28;20048;-49
2023/04/22 00:57:01;;;;;;;14.55;12.95;;;8.90;99.90;;;;;;5031460;28;20056;-45
2023/04/22 00:59:26;;;;;;;14.57;12.82;;;8.90;99.90;;;;;;5027977;28;20051;-47
2023/04/22 01:01:53;;;;;;;15.82;14.10;;;8.90;99.90;;;;;;5031147;28;20064;-44
2023/04/22 01:04:20;;;;;;;16.23;14.63;;;8.90;99.90;;;;;;5032637;28;20045;-38
2023/04/22 01:06:46;;;;;;;15.13;13.52;;;8.90;99.90;;;;;;5031592;28;20068;-46
2023/04/22 01:09:12;;;;;;;15.88;13.80;;;8.90;99.90;;;;;;5032240;28;20051;-41
2023/04/22 01:11:38;;;;;;;14.90;13.40;;;8.90;99.90;;;;;;5032673;28;20123;-38
2023/04/22 01:14:04;;;;;;;14.43;12.93;;;8.90;99.90;;;;;;5031640;28;20094;-38
2023/04/22 01:16:33;;;;;;;15.25;13.32;;;8.80;99.90;;;;;;5031608;28;20745;-44
2023/04/22 01:18:59;;;;;;;15.90;13.68;;;8.80;99.90;;;;;;5029110;28;20076;-41
2023/04/22 01:21:26;;;;;;;13.85;12.18;;;8.80;99.90;;;;;;5029462;28;20597;-47
2023/04/22 01:23:52;;;;;;;15.95;13.70;;;8.80;99.90;;;;;;5030976;28;20083;-42
2023/04/22 01:26:18;;;;;;;39.10;17.10;;;8.80;99.90;;;;;;5030249;28;20079;-39
2023/04/22 01:28:44;;;;;;;32.85;14.85;;;8.80;99.90;;;;;;5031072;28;20334;-37
2023/04/22 01:31:10;;;;;;;21.02;15.00;;;8.70;99.90;;;;;;5030751;28;20118;-46
2023/04/22 01:33:36;;;;;;;16.30;13.65;;;8.60;99.90;;;;;;5032194;28;20118;-44
2023/04/22 01:36:02;;;;;;;96.90;18.90;;;8.50;99.90;;;;;;5031500;28;20502;-41
2023/04/22 01:38:32;;;;;;;15.48;13.88;;;8.50;99.90;;;;;;5031694;28;20048;-37
2023/04/22 01:40:59;;;;;;;29.38;14.15;;;8.40;99.90;;;;;;5031699;28;20364;-45
2023/04/22 01:43:25;;;;;;;19.60;14.55;;;8.40;99.90;;;;;;5032665;28;20372;-49
2023/04/22 01:45:51;;;;;;;90.93;16.75;;;8.40;99.90;;;;;;5036352;28;20657;-45
2023/04/22 01:48:16;;;;;;;44.08;14.05;;;8.30;99.90;;;;;;5033507;28;20061;-48
2023/04/22 01:50:42;;;;;;;13.45;11.63;;;8.30;99.90;;;;;;5035517;28;20557;-42
2023/04/22 01:53:08;;;;;;;14.05;12.65;;;8.20;99.90;;;;;;5034834;28;20476;-39
2023/04/22 01:55:37;;;;;;;14.75;12.80;;;8.20;99.90;;;;;;5035339;28;20402;-37
2023/04/22 01:58:03;;;;;;;15.75;13.18;;;8.30;99.90;;;;;;5035582;28;20040;-41
2023/04/22 02:00:29;;;;;;;14.80;12.88;;;8.30;99.90;;;;;;5032114;28;20047;-37
2023/04/22 02:02:55;;;;;;;18.35;12.60;;;8.20;99.90;;;;;;5033744;28;20041;-49
2023/04/22 02:05:20;;;;;;;14.55;13.05;;;8.20;99.90;;;;;;5025967;28;20056;-41
2023/04/22 02:07:50;;;;;;;12.02;10.93;;;8.10;99.90;;;;;;5036746;28;20159;-41
2023/04/22 02:10:15;;;;;;;13.75;12.35;;;8.10;99.90;;;;;;5027194;28;20064;-38
2023/04/22 02:12:41;;;;;;;14.55;13.05;;;8.10;99.90;;;;;;5034623;28;20407;-46
2023/04/22 02:15:07;;;;;;;14.20;12.52;;;8.00;99.90;;;;;;5037283;28;20053;-45
2023/04/22 02:17:34;;;;;;;15.23;13.63;;;8.00;99.90;;;;;;5024589;28;20049;-39
2023/04/22 02:20:01;;;;;;;15.35;13.68;;;8.00;99.90;;;;;;5036325;28;20252;-45
2023/04/22 02:22:28;;;;;;;14.07;12.30;;;8.00;99.90;;;;;;5036216;28;20044;-47
2023/04/22 02:24:54;;;;;;;15.13;13.43;;;8.00;99.90;;;;;;5036541;28;20515;-45
2023/04/22 02:27:21;;;;;;;13.88;12.40;;;8.00;99.90;;;;;;5033414;28;20091;-41
2023/04/22 02:29:47;;;;;;;12.88;11.35;;;8.00;99.90;;;;;;5041610;28;20124;-46
2023/04/22 02:32:13;;;;;;;31.85;13.02;;;8.00;99.90;;;;;;5036827;28;20057;-48
2023/04/22 02:34:38;;;;;;;139.55;21.45;;;7.90;99.90;;;;;;5035492;28;20454;-42
2023/04/22 02:37:04;;;;;;;42.53;10.05;;;7.90;99.90;;;;;;5036907;28;20077;-40
2023/04/22 02:39:30;;;;;;;30.30;11.35;;;7.90;99.90;;;;;;5035893;28;20495;-47
2023/04/22 02:41:56;;;;;;;49.33;8.48;;;7.80;99.90;;;;;;5032791;28;20045;-41
2023/04/22 02:44:21;;;;;;;13.13;8.52;;;7.70;99.90;;;;;;5028231;28;20045;-46
2023/04/22 02:46:47;;;;;;;11.20;10.10;;;7.70;99.90;;;;;;5051983;28;20594;-48
2023/04/22 02:49:13;;;;;;;240.63;19.27;;;7.60;99.90;;;;;;5035930;28;20640;-45
2023/04/22 02:51:38;;;;;;;286.38;22.88;;;7.60;99.90;;;;;;5040831;28;20048;-46
2023/04/22 02:54:04;;;;;;;201.95;16.98;;;7.60;99.90;;;;;;5035883;28;20404;-38
2023/04/22 02:56:30;;;;;;;16.20;11.27;;;7.50;99.90;;;;;;5022542;28;20053;-43
2023/04/22 02:58:56;;;;;;;129.55;15.90;;;7.50;99.90;;;;;;5025559;28;20060;-39
2023/04/22 03:01:22;;;;;;;82.80;14.60;;;7.60;99.90;;;;;;5034415;28;20057;-45
2023/04/22 03:03:47;;;;;;;72.05;9.95;;;7.60;99.90;;;;;;5036126;28;20079;-43
2023/04/22 03:06:13;;;;;;;12.18;9.52;;;7.50;99.90;;;;;;5035727;28;20657;-46
2023/04/22 03:08:39;;;;;;;18.13;12.70;;;7.50;99.90;;;;;;5025804;28;20045;-42
2023/04/22 03:11:05;;;;;;;15.13;12.15;;;7.60;99.90;;;;;;5033688;28;20052;-46
2023/04/22 03:13:30;;;;;;;25.05;12.73;;;7.60;99.90;;;;;;5037137;28;20481;-45
2023/04/22 03:15:56;;;;;;;57.90;14.55;;;7.60;99.90;;;;;;5034077;28;20307;-39
2023/04/22 03:18:21;;;;;;;19.55;13.98;;;7.60;99.90;;;;;;5036312;28;20049;-48
2023/04/22 03:20:48;;;;;;;16.50;14.63;;;7.50;99.90;;;;;;5035545;28;20498;-43
2023/04/22 03:23:14;;;;;;;17.17;14.75;;;7.60;99.90;;;;;;5035530;28;20048;-44
2023/04/22 03:25:40;;;;;;;45.67;13.05;;;7.60;99.90;;;;;;5020585;28;20558;-41
2023/04/22 03:28:05;;;;;;;62.58;15.00;;;7.60;99.90;;;;;;5035737;28;20056;-41
2023/04/22 03:30:31;;;;;;;72.00;13.60;;;7.60;99.90;;;;;;5024798;28;20482;-39
2023/04/22 03:32:57;;;;;;;75.47;12.20;;;7.50;99.90;;;;;;5035284;28;20463;-45
2023/04/22 03:35:23;;;;;;;141.48;12.73;;;7.50;99.90;;;;;;5035239;28;20099;-39
2023/04/22 03:37:48;;;;;;;19.20;11.07;;;7.40;99.90;;;;;;5024813;28;20045;-37
2023/04/22 03:40:14;;;;;;;30.58;11.88;;;7.40;99.90;;;;;;5033515;28;20279;-39
2023/04/22 03:42:40;;;;;;;24.20;13.20;;;7.30;99.90;;;;;;5036213;28;20056;-43
2023/04/22 03:45:06;;;;;;;99.95;14.27;;;7.20;99.90;;;;;;5035524;28;20048;-42
2023/04/22 03:47:31;;;;;;;398.58;28.00;;;7.20;99.90;;;;;;5036008;28;20088;-47
2023/04/22 03:49:57;;;;;;;154.75;15.98;;;7.20;99.90;;;;;;5022010;28;20124;-41
2023/04/22 03:52:23;;;;;;;39.42;9.55;;;7.10;99.90;;;;;;5036490;28;20045;-44
2023/04/22 03:54:48;;;;;;;13.57;10.35;;;7.10;99.90;;;;;;5035049;28;20045;-37
2023/04/22 03:57:14;;;;;;;27.02;15.25;;;7.10;99.90;;;;;;5026661;28;20417;-37
2023/04/22 03:59:40;;;;;;;64.93;16.63;;;7.10;99.90;;;;;;5031603;28;20041;-42
2023/04/22 04:02:06;;;;;;;68.90;18.40;;;7.10;99.90;;;;;;5024678;28;20052;-48
2023/04/22 04:04:33;;;;;;;94.43;17.17;;;7.10;99.90;;;;;;5029013;28;20052;-43
2023/04/22 04:06:59;;;;;;;96.28;14.88;;;7.10;99.90;;;;;;5034468;28;20055;-39
2023/04/22 04:09:25;;;;;;;70.40;11.55;;;7.10;99.90;;;;;;5034956;28;20326;-48
2023/04/22 04:11:51;;;;;;;91.32;10.70;;;7.00;99.90;;;;;;5026151;28;20358;-40
2023/04/22 04:14:17;;;;;;;117.07;9.77;;;6.90;99.90;;;;;;5031453;28;20551;-40
2023/04/22 04:16:43;;;;;;;186.30;13.32;;;6.80;99.90;;;;;;5034662;28;20055;-47
2023/04/22 04:19:09;;;;;;;252.63;16.80;;;6.70;99.90;;;;;;5034993;28;20096;-38
2023/04/22 04:21:35;;;;;;;269.02;16.63;;;6.60;99.90;;;;;;5035972;28;20147;-44
2023/04/22 04:24:01;;;;;;;182.35;14.60;;;6.50;99.90;;;;;;5035537;28;20048;-42
2023/04/22 04:26:27;;;;;;;188.13;15.75;;;6.50;99.90;;;;;;5035217;28;20053;-43
2023/04/22 04:28:54;;;;;;;374.90;28.48;;;6.50;99.90;;;;;;5033446;28;20049;-41
2023/04/22 04:31:20;;;;;;;163.57;12.77;;;6.50;99.90;;;;;;5008384;28;20048;-39
2023/04/22 04:33:46;;;;;;;396.48;24.35;;;6.50;99.90;;;;;;5034633;28;20080;-48
2023/04/22 04:36:12;;;;;;;342.83;21.05;;;6.60;99.90;;;;;;5050155;28;20080;-45
2023/04/22 04:38:38;;;;;;;290.90;20.23;;;6.50;99.90;;;;;;5034234;28;20087;-45
2023/04/22 04:41:03;;;;;;;392.02;28.95;;;6.50;99.90;;;;;;5035214;28;20540;-38
2023/04/22 04:43:29;;;;;;;358.02;22.15;;;6.50;99.90;;;;;;5034681;28;20041;-37
2023/04/22 04:45:55;;;;;;;423.15;28.60;;;6.50;99.90;;;;;;5032109;28;20059;-48
2023/04/22 04:48:23;;;;;;;500.95;40.80;;;6.50;99.90;;;;;;5033977;28;20546;-43
2023/04/22 04:50:52;;;;;;;161.27;14.57;;;6.50;99.90;;;;;;5034539;28;20114;-37
2023/04/22 04:53:21;;;;;;;178.02;16.30;;;6.60;99.90;;;;;;5034162;28;20084;-47
2023/04/22 04:55:47;;;;;;;537.90;39.08;;;6.60;99.90;;;;;;5034037;28;20076;-40
2023/04/22 04:58:13;;;;;;;273.42;20.55;;;6.60;99.90;;;;;;5033468;28;20136;-45
2023/04/22 05:00:38;;;;;;;122.68;10.77;;;6.60;99.90;;;;;;5013876;28;20057;-39
2023/04/22 05:03:04;;;;;;;88.85;8.82;;;6.60;99.90;;;;;;5032471;28;20040;-45
2023/04/22 05:05:30;;;;;;;68.55;7.82;;;6.60;99.90;;;;;;5033923;28;20045;-39
2023/04/22 05:07:56;;;;;;;24.33;6.68;;;6.60;99.90;;;;;;5028558;28;20112;-43
2023/04/22 05:10:22;;;;;;;8.02;7.20;;;6.70;99.90;;;;;;5025093;28;20099;-45
2023/04/22 05:12:47;;;;;;;14.63;7.45;;;6.70;99.90;;;;;;5033380;28;20558;-43
2023/04/22 05:15:14;;;;;;;145.80;13.82;;;6.80;99.90;;;;;;5034094;28;20135;-40
2023/04/22 05:17:39;;;;;;;107.93;9.68;;;6.80;99.90;;;;;;5052519;28;20578;-37
2023/04/22 05:20:06;;;;;;;121.55;12.20;;;6.70;99.90;;;;;;5037832;28;20080;-43
2023/04/22 05:22:33;;;;;;;114.55;11.45;;;6.80;99.90;;;;;;5031881;28;20061;-45
2023/04/22 05:24:59;;;;;;;56.38;9.05;;;6.70;99.90;;;;;;5029357;28;20059;-40
2023/04/22 05:27:24;;;;;;;26.95;9.35;;;6.80;99.90;;;;;;5037517;28;20045;-49
2023/04/22 05:29:50;;;;;;;9.45;8.23;;;6.90;99.90;;;;;;5038053;28;20057;-41
2023/04/22 05:32:16;;;;;;;8.93;8.02;;;7.00;99.90;;;;;;5024738;28;20105;-45
2023/04/22 05:34:41;;;;;;;8.05;7.28;;;7.10;99.90;;;;;;5033441;28;20098;-45
2023/04/22 05:37:09;;;;;;;7.75;6.40;;;7.10;99.90;;;;;;5017999;28;20504;-45
2023/04/22 05:39:35;;;;;;;14.48;8.05;;;7.20;99.90;;;;;;5027325;28;20506;-46
2023/04/22 05:42:01;;;;;;;62.78;9.48;;;7.20;99.90;;;;;;5016512;28;20159;-44
2023/04/22 05:44:27;;;;;;;36.47;7.55;;;7.40;99.90;;;;;;5029567;28;20579;-45
2023/04/22 05:46:53;;;;;;;13.65;7.32;;;7.40;99.90;;;;;;5038138;28;20049;-46
2023/04/22 05:49:18;;;;;;;6.28;5.60;;;7.40;99.90;;;;;;5025323;28;20393;-38
2023/04/22 05:51:44;;;;;;;7.40;5.43;;;7.40;99.90;;;;;;5035757;28;20322;-44
2023/04/22 05:54:10;;;;;;;6.50;5.60;;;7.40;99.90;;;;;;5036706;28;20060;-40
2023/04/22 05:56:36;;;;;;;8.70;6.72;;;7.60;99.90;;;;;;5037364;28;20048;-47
2023/04/22 05:59:01;;;;;;;7.97;7.28;;;7.70;99.90;;;;;;5052638;28;20045;-38
2023/04/22 06:01:27;;;;;;;6.40;5.90;;;7.90;99.90;;;;;;5037612;28;20263;-39
2023/04/22 06:03:52;;;;;;;6.57;5.97;;;8.10;99.90;;;;;;5037914;28;20045;-47
2023/04/22 06:06:18;;;;;;;6.88;5.10;;;8.30;99.90;;;;;;5052969;28;20472;-45
2023/04/22 06:08:44;;;;;;;5.40;4.72;;;8.40;99.90;;;;;;5025734;28;20397;-43
2023/04/22 06:11:10;;;;;;;4.70;4.30;;;8.60;99.90;;;;;;5033848;28;20068;-45
2023/04/22 06:13:35;;;;;;;6.50;5.78;;;8.70;99.90;;;;;;5025817;28;20103;-40
2023/04/22 06:16:01;;;;;;;7.00;6.20;;;8.70;99.90;;;;;;5021678;28;20487;-40
2023/04/22 06:18:27;;;;;;;7.50;6.53;;;8.80;99.90;;;;;;5037166;28;20515;-48
2023/04/22 06:20:53;;;;;;;7.78;7.07;;;8.90;99.90;;;;;;5033907;28;20056;-43
2023/04/22 06:23:18;;;;;;;6.72;6.15;;;8.90;99.90;;;;;;5029265;28;20559;-41
2023/04/22 06:25:44;;;;;;;8.13;7.32;;;8.90;99.90;;;;;;5036282;28;20404;-45
2023/04/22 06:28:10;;;;;;;6.35;5.75;;;8.90;99.90;;;;;;5024661;28;20053;-41
2023/04/22 06:30:36;;;;;;;6.40;5.80;;;9.10;99.90;;;;;;5023230;28;20045;-46
2023/04/22 06:33:01;;;;;;;6.90;6.30;;;9.30;99.90;;;;;;5037744;28;20055;-43
2023/04/22 06:35:27;;;;;;;8.02;7.25;;;9.50;99.90;;;;;;5035958;28;20056;-41
2023/04/22 06:37:52;;;;;;;7.78;7.15;;;9.90;99.90;;;;;;5037330;28;20045;-41
2023/04/22 06:40:18;;;;;;;12.48;11.35;;;10.20;99.90;;;;;;5036329;28;20138;-40
2023/04/22 06:42:44;;;;;;;15.85;14.35;;;10.50;99.90;;;;;;5037247;28;20324;-46
2023/04/22 06:45:11;;;;;;;16.13;14.63;;;10.70;99.90;;;;;;5023245;28;20080;-47
2023/04/22 06:47:40;;;;;;;18.08;16.38;;;10.80;99.90;;;;;;5031876;28;20049;-39
2023/04/22 06:50:07;;;;;;;17.27;15.68;;;10.80;99.90;;;;;;5030134;28;20041;-44
2023/04/22 06:52:33;;;;;;;18.55;16.75;;;10.90;99.90;;;;;;5032203;28;20051;-44
2023/04/22 06:54:59;;;;;;;18.58;16.85;;;10.80;99.90;;;;;;5033278;28;20562;-46
2023/04/22 06:57:25;;;;;;;18.90;17.10;;;10.80;99.90;;;;;;5034600;28;20102;-50
2023/04/22 06:59:51;;;;;;;18.67;16.83;;;10.90;99.90;;;;;;5031038;28;20060;-41
2023/04/22 07:02:16;;;;;;;18.45;16.77;;;10.90;99.90;;;;;;5035038;28;20052;-40
2023/04/22 07:04:42;;;;;;;18.42;16.83;;;11.00;99.90;;;;;;5032581;28;20442;-40
2023/04/22 07:07:08;;;;;;;18.20;16.60;;;11.00;99.90;;;;;;5043417;28;20479;-44
2023/04/22 07:09:34;;;;;;;18.48;16.75;;;11.10;99.90;;;;;;5034991;28;20140;-38
2023/04/22 07:12:01;;;;;;;19.60;17.70;;;11.20;99.90;;;;;;5033287;28;20194;-46
2023/04/22 07:14:27;;;;;;;21.35;19.25;;;11.30;99.90;;;;;;5031951;28;20041;-46
2023/04/22 07:16:53;;;;;;;20.27;18.38;;;11.30;99.90;;;;;;5028831;28;20080;-38
2023/04/22 07:19:18;;;;;;;20.75;18.75;;;11.30;99.90;;;;;;5030138;28;20433;-46
2023/04/22 07:21:44;;;;;;;19.80;17.88;;;11.40;99.90;;;;;;5034295;28;20330;-36
2023/04/22 07:24:11;;;;;;;21.13;19.08;;;11.40;99.90;;;;;;5032188;28;20048;-45
2023/04/22 07:26:39;;;;;;;20.35;18.45;;;11.40;99.90;;;;;;5032639;28;20045;-43
2023/04/22 07:29:06;;;;;;;21.85;19.60;;;11.50;99.90;;;;;;5028067;28;20041;-48
2023/04/22 07:31:34;;;;;;;23.48;21.08;;;11.70;99.90;;;;;;5027939;28;20053;-40
2023/04/22 07:33:59;;;;;;;22.38;20.27;;;11.80;99.90;;;;;;5032218;28;20044;-37
2023/04/22 07:36:25;;;;;;;23.13;20.92;;;11.80;99.90;;;;;;5035055;28;20049;-47
2023/04/22 07:38:51;;;;;;;22.40;20.17;;;12.00;99.90;;;;;;5032758;28;20050;-47
2023/04/22 07:41:17;;;;;;;22.05;19.77;;;12.00;99.90;;;;;;5035196;28;20044;-42
2023/04/22 07:43:42;;;;;;;24.10;21.80;;;12.20;99.90;;;;;;5034002;28;20520;-48
2023/04/22 07:46:08;;;;;;;22.33;20.23;;;12.30;99.90;;;;;;5032662;28;20041;-41
2023/04/22 07:48:34;;;;;;;22.90;20.60;;;12.40;99.90;;;;;;5033591;28;20119;-41
2023/04/22 07:51:00;;;;;;;23.70;21.27;;;12.50;99.90;;;;;;5034380;28;20041;-43
2023/04/22 07:53:25;;;;;;;23.40;20.90;;;12.60;99.90;;;;;;5033980;28;20059;-45
2023/04/22 07:55:51;;;;;;;22.67;20.48;;;12.60;99.90;;;;;;5032872;28;20057;-44
2023/04/22 07:58:16;;;;;;;22.42;20.27;;;12.70;99.90;;;;;;5034003;28;20057;-45
2023/04/22 08:00:42;;;;;;;21.27;19.25;;;12.70;99.90;;;;;;5031809;28;20056;-39
2023/04/22 08:03:08;;;;;;;22.35;20.35;;;12.70;99.90;;;;;;5014141;28;20412;-41
2023/04/22 08:05:34;;;;;;;22.35;20.33;;;12.90;99.90;;;;;;5031815;28;20041;-38
2023/04/22 08:07:59;;;;;;;24.40;21.95;;;13.00;99.90;;;;;;5025985;28;20053;-37
2023/04/22 08:10:25;;;;;;;22.98;20.83;;;13.20;99.90;;;;;;5029447;28;20160;-46
2023/04/22 08:12:51;;;;;;;23.88;21.70;;;13.30;99.90;;;;;;5031322;28;20053;-48
2023/04/22 08:15:17;;;;;;;23.90;21.58;;;13.60;99.90;;;;;;5033101;28;20052;-50
2023/04/22 08:17:43;;;;;;;23.98;21.42;;;13.90;99.90;;;;;;5033327;28;20434;-41
2023/04/22 08:20:09;;;;;;;22.50;20.40;;;14.10;99.90;;;;;;5031307;28;20049;-37
2023/04/22 08:22:35;;;;;;;22.98;20.77;;;14.20;99.90;;;;;;5031557;28;20147;-49
2023/04/22 08:25:01;;;;;;;23.65;21.23;;;14.30;99.90;;;;;;5032600;28;20041;-45
2023/04/22 08:27:27;;;;;;;22.75;20.70;;;14.50;99.90;;;;;;5031203;28;20067;-50
2023/04/22 08:29:52;;;;;;;23.63;21.27;;;14.60;99.90;;;;;;5032089;28;20075;-47
2023/04/22 08:32:18;;;;;;;24.17;22.08;;;14.60;99.90;;;;;;5033343;28;20146;-45
2023/04/22 08:34:45;;;;;;;23.38;21.20;;;14.80;99.90;;;;;;5032902;28;20091;-38
2023/04/22 08:37:11;;;;;;;23.45;21.15;;;14.90;99.90;;;;;;5045251;28;20067;-43
2023/04/22 08:39:37;;;;;;;23.02;21.00;;;14.90;99.90;;;;;;5032967;28;20041;-47
2023/04/22 08:42:03;;;;;;;23.75;21.42;;;14.60;99.90;;;;;;5025812;28;20045;-46
2023/04/22 08:44:29;;;;;;;23.08;20.98;;;14.50;99.90;;;;;;5030770;28;20909;-39
2023/04/22 08:46:55;;;;;;;22.15;20.15;;;14.60;99.90;;;;;;5033162;28;20239;-50
2023/04/22 08:49:23;;;;;;;23.15;21.08;;;14.70;99.90;;;;;;5028631;28;20404;-49
2023/04/22 08:51:49;;;;;;;25.45;22.95;;;14.90;99.90;;;;;;5023717;28;20056;-38
2023/04/22 08:54:15;;;;;;;22.63;20.50;;;15.10;99.90;;;;;;5031056;28;20824;-40
2023/04/22 08:56:43;;;;;;;22.58;20.55;;;15.20;99.90;;;;;;5026736;28;20546;-40
2023/04/22 08:59:12;;;;;;;22.70;20.50;;;15.30;99.90;;;;;;5032234;28;20049;-39
2023/04/22 09:01:42;;;;;;;22.50;20.50;;;15.40;99.90;;;;;;5043966;28;20057;-47
2023/04/22 09:04:13;;;;;;;23.65;21.52;;;15.30;99.90;;;;;;5031892;28;20074;-46
2023/04/22 09:06:39;;;;;;;21.13;19.17;;;15.60;99.90;;;;;;5032715;28;20045;-38
2023/04/22 09:09:07;;;;;;;23.15;20.95;;;15.70;99.90;;;;;;5026011;28;20103;-47
2023/04/22 09:11:34;;;;;;;21.02;19.25;;;15.70;99.90;;;;;;5031631;28;20052;-47
2023/04/22 09:14:01;;;;;;;22.00;19.90;;;15.70;99.90;;;;;;5031159;28;20049;-41
2023/04/22 09:16:29;;;;;;;20.92;19.10;;;15.60;99.90;;;;;;5033382;28;20040;-50
2023/04/22 09:18:55;;;;;;;22.88;20.80;;;15.50;99.90;;;;;;5029272;28;20164;-49
2023/04/22 09:21:26;;;;;;;22.55;20.55;;;15.60;99.90;;;;;;5031767;28;20041;-42
2023/04/22 09:23:53;;;;;;;23.20;20.90;;;15.90;99.90;;;;;;5018910;28;20507;-48
2023/04/22 09:26:21;;;;;;;21.17;19.17;;;16.10;99.90;;;;;;5029532;28;20465;-40
2023/04/22 09:28:52;;;;;;;21.70;19.52;;;16.30;99.90;;;;;;5031418;28;20232;-50
2023/04/22 09:31:17;;;;;;;22.40;20.30;;;16.40;99.90;;;;;;5031455;28;20294;-39
2023/04/22 09:33:51;;;;;;;19.88;18.10;;;16.60;99.90;;;;;;5033422;28;20048;-48
2023/04/22 09:36:33;;;;;;;18.92;17.02;;;16.50;99.90;;;;;;5032705;28;20048;-43
2023/04/22 09:39:03;;;;;;;20.52;18.52;;;16.50;99.90;;;;;;5032119;28;20102;-46
2023/04/22 09:41:37;;;;;;;21.13;19.10;;;16.60;99.90;;;;;;5033852;28;20045;-48
2023/04/22 09:44:13;;;;;;;19.60;17.80;;;16.70;99.90;;;;;;5031533;28;20444;-44
2023/04/22 09:46:41;;;;;;;17.17;15.55;;;16.70;99.90;;;;;;5014412;28;20650;-38
2023/04/22 09:49:08;;;;;;;19.33;17.48;;;16.80;99.90;;;;;;5031794;28;20053;-50
2023/04/22 09:51:39;;;;;;;18.17;16.48;;;16.90;99.90;;;;;;5032714;28;20937;-44
2023/04/22 09:54:10;;;;;;;18.35;16.48;;;16.90;99.90;;;;;;5032658;28;20056;-45
2023/04/22 09:56:47;;;;;;;17.13;15.50;;;17.00;99.90;;;;;;5033563;28;20110;-45
2023/04/22 09:59:18;;;;;;;18.35;16.65;;;17.10;99.90;;;;;;5032058;28;20049;-45
2023/04/22 10:01:44;;;;;;;17.27;15.45;;;17.20;99.90;;;;;;5031054;28;20063;-44
2023/04/22 10:04:10;;;;;;;17.23;15.23;;;17.30;99.90;;;;;;5033125;28;20053;-41
2023/04/22 10:06:36;;;;;;;17.38;15.68;;;17.30;99.90;;;;;;5029776;28;20044;-48
2023/04/22 10:09:03;;;;;;;17.35;15.63;;;17.40;99.90;;;;;;5036048;28;20049;-49
2023/04/22 10:11:31;;;;;;;16.70;15.13;;;17.50;99.90;;;;;;5036071;28;20059;-46
2023/04/22 10:13:59;;;;;;;16.80;15.30;;;17.60;99.90;;;;;;5033024;28;20511;-46
2023/04/22 10:16:27;;;;;;;15.77;14.20;;;17.70;99.90;;;;;;5035543;28;20070;-52
2023/04/22 10:18:55;;;;;;;19.60;15.40;;;17.80;99.90;;;;;;5031510;28;20052;-43
2023/04/22 10:21:24;;;;;;;17.08;15.48;;;17.90;99.90;;;;;;5033562;28;20056;-40
2023/04/22 10:23:50;;;;;;;16.25;14.48;;;17.80;99.90;;;;;;5034454;28;20041;-43
2023/04/22 10:26:41;;;;;;;15.35;13.95;;;17.80;99.90;;;;;;5036316;28;20502;-45
2023/04/22 10:29:12;;;;;;;14.50;13.23;;;17.80;99.90;;;;;;5034404;28;20116;-46
2023/04/22 10:31:38;;;;;;;15.85;14.27;;;17.80;99.90;;;;;;5032466;28;20107;-47
2023/04/22 10:34:12;;;;;;;15.45;13.88;;;18.10;99.90;;;;;;5033030;28;20040;-39
2023/04/22 10:37:04;;;;;;;13.13;11.68;;;18.20;99.90;;;;;;5033766;28;20500;-47
2023/04/22 10:39:29;;;;;;;13.88;12.50;;;18.40;99.90;;;;;;5032846;28;20045;-43
2023/04/22 10:42:15;;;;;;;14.10;12.80;;;18.40;99.90;;;;;;5035144;28;20045;-49
2023/04/22 10:44:59;;;;;;;14.93;13.73;;;18.50;99.90;;;;;;5033490;28;20056;-44
2023/04/22 10:47:30;;;;;;;14.40;13.07;;;18.50;99.90;;;;;;5036006;28;20079;-51
2023/04/22 10:50:26;;;;;;;13.77;12.68;;;18.40;99.90;;;;;;5035149;28;20040;-45
2023/04/22 10:52:57;;;;;;;14.05;12.77;;;18.50;99.90;;;;;;5033007;28;20056;-45
2023/04/22 10:55:24;;;;;;;14.77;12.60;;;18.60;99.90;;;;;;5035903;28;20049;-47
2023/04/22 10:57:52;;;;;;;14.60;13.20;;;18.80;99.90;;;;;;5035089;28;20048;-49
2023/04/22 11:00:30;;;;;;;14.02;12.73;;;18.90;99.90;;;;;;5034391;28;20164;-44
2023/04/22 11:03:04;;;;;;;14.18;12.88;;;19.00;99.90;;;;;;5033044;28;20045;-48
2023/04/22 11:05:31;;;;;;;14.88;13.45;;;19.00;99.90;;;;;;5034507;28;20045;-46
2023/04/22 11:08:12;;;;;;;14.77;13.48;;;19.00;99.90;;;;;;5034583;28;20419;-44
2023/04/22 11:10:40;;;;;;;15.70;14.32;;;19.20;99.90;;;;;;5034948;28;20051;-41
2023/04/22 11:13:07;;;;;;;13.45;12.15;;;19.20;99.90;;;;;;5035302;28;20052;-45
2023/04/22 11:15:38;;;;;;;14.10;12.88;;;19.40;99.90;;;;;;5032606;28;20506;-47
2023/04/22 11:18:09;;;;;;;13.98;12.73;;;19.40;99.90;;;;;;5035407;28;20063;-42
2023/04/22 11:20:36;;;;;;;13.27;12.07;;;19.40;99.90;;;;;;5033593;28;20055;-49
2023/04/22 11:23:02;;;;;;;13.68;11.77;;;19.50;99.90;;;;;;5033988;28;20071;-41
2023/04/22 11:25:27;;;;;;;13.02;11.70;;;19.70;99.90;;;;;;5034674;28;20046;-41
2023/04/22 11:27:54;;;;;;;14.02;12.63;;;19.60;99.90;;;;;;5034860;28;20562;-46
2023/04/22 11:30:22;;;;;;;14.88;13.57;;;19.70;99.90;;;;;;5016032;28;20127;-42
2023/04/22 11:32:57;;;;;;;11.90;10.90;;;19.70;99.90;;;;;;5035795;28;20091;-44
2023/04/22 11:35:32;;;;;;;12.27;11.18;;;19.70;99.90;;;;;;5016949;28;20049;-45
2023/04/22 11:38:03;;;;;;;12.60;11.45;;;19.70;99.90;;;;;;5034828;28;20076;-45
2023/04/22 11:40:35;;;;;;;13.38;12.05;;;19.60;99.90;;;;;;5033546;28;20377;-41
2023/04/22 11:43:02;;;;;;;13.60;12.40;;;19.60;99.90;;;;;;5015192;28;20037;-49
2023/04/22 11:45:31;;;;;;;13.55;12.23;;;19.70;99.90;;;;;;5034422;28;20055;-44
2023/04/22 11:47:57;;;;;;;13.50;12.30;;;19.70;99.90;;;;;;5032430;28;20467;-49
2023/04/22 11:50:29;;;;;;;13.60;12.18;;;19.70;99.90;;;;;;5035100;28;20052;-47
2023/04/22 11:53:01;;;;;;;12.27;11.07;;;19.80;99.90;;;;;;5033023;28;20044;-51
2023/04/22 11:55:37;;;;;;;13.82;12.35;;;19.60;99.90;;;;;;5033080;28;20439;-50
2023/04/22 11:58:08;;;;;;;9.80;8.80;;;19.30;99.90;;;;;;5034432;28;20535;-41
2023/04/22 12:00:40;;;;;;;13.15;11.80;;;19.10;99.90;;;;;;5032288;28;20045;-45
2023/04/22 12:03:14;;;;;;;13.68;12.15;;;18.90;99.90;;;;;;5032377;28;20044;-50
2023/04/22 12:05:58;;;;;;;12.45;11.32;;;18.80;99.90;;;;;;5029412;28;20095;-44
2023/04/22 12:08:30;;;;;;;12.57;11.48;;;18.80;99.90;;;;;;5033642;28;20040;-42
2023/04/22 12:10:58;;;;;;;13.25;11.90;;;18.90;99.90;;;;;;5033942;28;20491;-41
2023/04/22 12:13:26;;;;;;;13.15;11.93;;;19.00;99.90;;;;;;5030324;28;20041;-46
2023/04/22 12:16:00;;;;;;;13.38;12.05;;;19.20;99.90;;;;;;5033152;28;20098;-39
2023/04/22 12:18:32;;;;;;;15.48;12.48;;;19.50;99.90;;;;;;5032402;28;20536;-40
2023/04/22 12:21:20;;;;;;;14.55;13.18;;;19.70;99.90;;;;;;5034138;28;20143;-43
2023/04/22 12:23:54;;;;;;;13.45;12.35;;;19.80;99.90;;;;;;5030157;28;20045;-41
2023/04/22 12:26:23;;;;;;;14.20;12.80;;;19.80;99.90;;;;;;5031559;28;20516;-48
2023/04/22 12:28:49;;;;;;;15.18;13.77;;;19.60;99.90;;;;;;5031033;28;20500;-50
2023/04/22 12:31:16;;;;;;;14.82;13.45;;;19.40;99.90;;;;;;5031362;28;20565;-45
2023/04/22 12:33:43;;;;;;;14.10;12.60;;;19.30;99.90;;;;;;5032916;28;20033;-49